Time;durP1;ratioP1;P1;durP2;ratioP2;P2;SDS_P1;SDS_P2;PMS_P1;PMS_P2;Temp;Humidity;BMP_temperature;BMP_pressure;BME280_temperature;BME280_humidity;BME280_pressure;Samples;Min_cycle;Max_cycle;Signal;HPM_P1;HPM_P2
2022/07/21 00:01:05;;;;;;;28.10;25.10;;;;;;;;;;5094621;28;20438;-65
2022/07/21 00:03:33;;;;;;;30.63;26.07;;;;;;;;;;5094169;28;20991;-64
2022/07/21 00:06:00;;;;;;;30.10;26.60;;;;;;;;;;5094589;28;20525;-65
2022/07/21 00:08:29;;;;;;;31.63;28.20;;;;;;;;;;5093645;28;20537;-64
2022/07/21 00:10:56;;;;;;;30.70;27.00;;;;;;;;;;5094383;28;20439;-65
2022/07/21 00:13:23;;;;;;;28.43;24.63;;;;;;;;;;5094338;28;20440;-64
2022/07/21 00:15:50;;;;;;;30.93;25.37;;;;;;;;;;5093853;28;20990;-65
2022/07/21 00:18:18;;;;;;;28.70;25.60;;;;;;;;;;5094262;28;20777;-65
2022/07/21 00:20:45;;;;;;;30.73;25.10;;;;;;;;;;5094222;28;20460;-65
2022/07/21 00:23:13;;;;;;;29.13;24.27;;;;;;;;;;5093808;28;20541;-65
2022/07/21 00:25:41;;;;;;;27.10;22.67;;;;;;;;;;5093798;28;20453;-64
2022/07/21 00:28:09;;;;;;;31.23;24.20;;;;;;;;;;5094357;28;20542;-65
2022/07/21 00:30:36;;;;;;;31.37;25.83;;;;;;;;;;5093751;28;20540;-65
2022/07/21 00:33:03;;;;;;;29.43;26.53;;;;;;;;;;5094008;28;20472;-65
2022/07/21 00:35:30;;;;;;;37.30;30.00;;;;;;;;;;5093646;28;20472;-64
2022/07/21 00:37:58;;;;;;;32.23;28.63;;;;;;;;;;5093888;28;20444;-65
2022/07/21 00:40:25;;;;;;;30.73;27.47;;;;;;;;;;5093634;28;20485;-64
2022/07/21 00:42:54;;;;;;;31.73;26.10;;;;;;;;;;5094103;28;20441;-66
2022/07/21 00:45:21;;;;;;;30.77;27.57;;;;;;;;;;5093533;28;20937;-66
2022/07/21 00:47:48;;;;;;;29.60;26.53;;;;;;;;;;5094280;28;20819;-65
2022/07/21 00:50:18;;;;;;;30.40;26.23;;;;;;;;;;5093468;28;20992;-65
2022/07/21 00:52:46;;;;;;;27.70;24.53;;;;;;;;;;5093686;28;20505;-65
2022/07/21 00:55:14;;;;;;;28.67;25.77;;;;;;;;;;5093848;28;20587;-65
2022/07/21 00:57:41;;;;;;;31.47;26.23;;;;;;;;;;5093625;28;20453;-65
2022/07/21 01:00:12;;;;;;;30.07;25.40;;;;;;;;;;5093694;28;20451;-65
2022/07/21 01:02:40;;;;;;;25.80;23.07;;;;;;;;;;5093893;28;20906;-65
2022/07/21 01:05:08;;;;;;;26.20;21.77;;;;;;;;;;5093804;28;20475;-65
2022/07/21 01:07:36;;;;;;;27.27;24.33;;;;;;;;;;5093522;28;20453;-65
2022/07/21 01:10:03;;;;;;;25.77;23.03;;;;;;;;;;5093649;28;20433;-64
2022/07/21 01:12:31;;;;;;;27.73;22.40;;;;;;;;;;5093354;28;20941;-64
2022/07/21 01:14:58;;;;;;;25.03;21.40;;;;;;;;;;5093178;28;20481;-65
2022/07/21 01:17:27;;;;;;;24.83;21.87;;;;;;;;;;5093802;28;20796;-65
2022/07/21 01:19:54;;;;;;;23.57;21.23;;;;;;;;;;5093642;28;20434;-64
2022/07/21 01:22:23;;;;;;;25.77;23.17;;;;;;;;;;5096436;28;20454;-65
2022/07/21 01:24:50;;;;;;;25.23;22.80;;;;;;;;;;5097598;28;20457;-65
2022/07/21 01:27:17;;;;;;;26.90;24.10;;;;;;;;;;5097602;28;20526;-64
2022/07/21 01:29:44;;;;;;;30.10;25.37;;;;;;;;;;5097665;28;20522;-65
2022/07/21 01:32:12;;;;;;;28.60;25.60;;;;;;;;;;5097524;28;20539;-65
2022/07/21 01:34:39;;;;;;;32.43;25.67;;;;;;;;;;5096936;28;20518;-65
2022/07/21 01:37:06;;;;;;;27.67;24.70;;;;;;;;;;5097394;28;20542;-66
2022/07/21 01:42:19;;;;;;;26.00;23.40;;;;;;;;;;5097358;28;20766;-66
2022/07/21 01:44:47;;;;;;;27.50;24.53;;;;;;;;;;5097219;28;20468;-66
2022/07/21 01:47:14;;;;;;;33.37;25.93;;;;;;;;;;5097519;28;20445;-66
2022/07/21 01:49:41;;;;;;;30.60;24.60;;;;;;;;;;5097064;28;20453;-66
2022/07/21 01:52:09;;;;;;;27.93;24.87;;;;;;;;;;5096801;28;20959;-65
2022/07/21 01:54:37;;;;;;;26.50;23.80;;;;;;;;;;5096610;28;20483;-66
2022/07/21 01:57:05;;;;;;;26.80;23.90;;;;;;;;;;5096787;28;20457;-66
2022/07/21 01:59:32;;;;;;;26.00;23.47;;;;;;;;;;5096964;28;20491;-66
2022/07/21 02:01:59;;;;;;;29.40;25.87;;;;;;;;;;5096657;28;20442;-67
2022/07/21 02:04:26;;;;;;;23.67;21.17;;;;;;;;;;5097066;28;20798;-67
2022/07/21 02:06:54;;;;;;;25.63;22.83;;;;;;;;;;5097433;28;20437;-67
2022/07/21 02:09:21;;;;;;;23.10;20.83;;;;;;;;;;5096729;28;20440;-67
2022/07/21 02:11:49;;;;;;;22.80;19.37;;;;;;;;;;5097167;28;20888;-67
2022/07/21 02:14:17;;;;;;;19.47;17.40;;;;;;;;;;5096543;28;20866;-67
2022/07/21 02:16:44;;;;;;;21.10;18.27;;;;;;;;;;5096859;28;20511;-67
2022/07/21 02:19:11;;;;;;;20.33;18.23;;;;;;;;;;5096642;28;20493;-67
2022/07/21 02:21:38;;;;;;;18.17;16.10;;;;;;;;;;5097404;28;20523;-66
2022/07/21 02:24:06;;;;;;;16.27;13.73;;;;;;;;;;5096307;28;20501;-66
2022/07/21 02:26:33;;;;;;;19.10;16.90;;;;;;;;;;5096497;28;20450;-67
2022/07/21 02:29:02;;;;;;;18.23;15.90;;;;;;;;;;5096386;28;20790;-67
2022/07/21 02:31:30;;;;;;;16.30;14.60;;;;;;;;;;5095679;28;20477;-66
2022/07/21 02:33:57;;;;;;;17.97;16.20;;;;;;;;;;5096268;28;20445;-67
2022/07/21 02:36:24;;;;;;;15.57;14.00;;;;;;;;;;5095950;28;20486;-67
2022/07/21 02:38:51;;;;;;;15.60;13.93;;;;;;;;;;5095989;28;20442;-67
2022/07/21 02:41:18;;;;;;;11.23;10.23;;;;;;;;;;5096233;28;20534;-66
2022/07/21 02:43:46;;;;;;;10.53;9.50;;;;;;;;;;5096025;28;20442;-67
2022/07/21 02:46:14;;;;;;;11.60;9.63;;;;;;;;;;5096173;28;20479;-66
2022/07/21 02:48:42;;;;;;;9.80;8.57;;;;;;;;;;5095937;28;20435;-67
2022/07/21 02:51:09;;;;;;;9.10;8.17;;;;;;;;;;5096024;28;20561;-67
2022/07/21 02:53:36;;;;;;;10.63;9.53;;;;;;;;;;5095780;28;20467;-67
2022/07/21 02:56:03;;;;;;;12.70;11.40;;;;;;;;;;5095908;28;20882;-66
2022/07/21 02:58:31;;;;;;;14.77;12.80;;;;;;;;;;5095872;28;20524;-66
2022/07/21 03:00:59;;;;;;;14.50;12.90;;;;;;;;;;5095481;28;21012;-66
2022/07/21 03:03:29;;;;;;;17.33;14.37;;;;;;;;;;5095482;28;20447;-67
2022/07/21 03:05:56;;;;;;;15.10;13.60;;;;;;;;;;5095925;28;20446;-67
2022/07/21 03:08:23;;;;;;;17.10;13.90;;;;;;;;;;5095740;28;20478;-67
2022/07/21 03:10:51;;;;;;;14.33;12.90;;;;;;;;;;5095445;28;20531;-67
2022/07/21 03:13:19;;;;;;;16.20;14.70;;;;;;;;;;5095247;28;20533;-67
2022/07/21 03:15:46;;;;;;;17.33;15.60;;;;;;;;;;5095389;28;20492;-67
2022/07/21 03:18:13;;;;;;;16.90;15.13;;;;;;;;;;5095169;28;21004;-67
2022/07/21 03:20:42;;;;;;;15.97;14.40;;;;;;;;;;5095333;28;20435;-67
2022/07/21 03:23:10;;;;;;;18.10;13.57;;;;;;;;;;5095368;28;20443;-66
2022/07/21 03:25:37;;;;;;;13.80;12.40;;;;;;;;;;5095368;28;20553;-66
2022/07/21 03:28:05;;;;;;;13.70;12.30;;;;;;;;;;5095435;28;20473;-66
2022/07/21 03:30:32;;;;;;;16.80;13.13;;;;;;;;;;5095176;28;20436;-66
2022/07/21 03:32:59;;;;;;;14.03;12.50;;;;;;;;;;5094875;28;20526;-66
2022/07/21 03:35:26;;;;;;;15.83;14.23;;;;;;;;;;5094623;28;20567;-66
2022/07/21 03:37:56;;;;;;;14.90;13.40;;;;;;;;;;5095610;28;20442;-66
2022/07/21 03:40:24;;;;;;;15.37;13.97;;;;;;;;;;5094593;28;20443;-65
2022/07/21 03:42:51;;;;;;;14.10;12.40;;;;;;;;;;5094885;28;20532;-65
2022/07/21 03:45:18;;;;;;;15.10;13.23;;;;;;;;;;5094225;28;20450;-66
2022/07/21 03:47:46;;;;;;;14.07;12.60;;;;;;;;;;5095256;28;20538;-65
2022/07/21 03:50:14;;;;;;;15.47;13.87;;;;;;;;;;5094466;28;20527;-65
2022/07/21 03:52:41;;;;;;;15.20;13.60;;;;;;;;;;5094507;28;20449;-66
2022/07/21 03:55:14;;;;;;;17.10;15.40;;;;;;;;;;5094161;28;20486;-65
2022/07/21 03:57:42;;;;;;;21.50;16.30;;;;;;;;;;5094452;28;20423;-64
2022/07/21 04:00:11;;;;;;;21.30;16.60;;;;;;;;;;5094253;28;20929;-64
2022/07/21 04:02:38;;;;;;;18.23;16.43;;;;;;;;;;5094183;28;20444;-65
2022/07/21 04:05:06;;;;;;;20.80;17.27;;;;;;;;;;5093691;28;20870;-67
2022/07/21 04:07:33;;;;;;;19.43;17.43;;;;;;;;;;5093605;28;20472;-66
2022/07/21 04:10:00;;;;;;;16.80;15.13;;;;;;;;;;5093863;28;20452;-65
2022/07/21 04:12:29;;;;;;;18.50;15.13;;;;;;;;;;5094252;28;20874;-64
2022/07/21 04:14:56;;;;;;;19.20;17.13;;;;;;;;;;5093972;28;20538;-65
2022/07/21 04:17:24;;;;;;;20.77;16.60;;;;;;;;;;5094214;28;20481;-65
2022/07/21 04:19:51;;;;;;;21.60;18.53;;;;;;;;;;5094206;28;20534;-65
2022/07/21 04:22:18;;;;;;;19.90;17.80;;;;;;;;;;5093920;28;20929;-65
2022/07/21 04:24:45;;;;;;;20.90;18.70;;;;;;;;;;5094276;28;20550;-65
2022/07/21 04:27:13;;;;;;;24.67;17.90;;;;;;;;;;5094522;28;20465;-65
2022/07/21 04:29:41;;;;;;;18.40;16.53;;;;;;;;;;5093781;28;20487;-66
2022/07/21 04:32:08;;;;;;;15.73;14.17;;;;;;;;;;5093731;28;20527;-65
2022/07/21 04:34:36;;;;;;;17.90;16.00;;;;;;;;;;5093526;28;21048;-66
2022/07/21 04:37:03;;;;;;;20.23;15.10;;;;;;;;;;5093753;28;20565;-66
2022/07/21 04:39:30;;;;;;;18.47;15.40;;;;;;;;;;5093566;28;20535;-66
2022/07/21 04:41:57;;;;;;;16.73;15.03;;;;;;;;;;5093436;28;20533;-65
2022/07/21 04:44:24;;;;;;;29.93;16.67;;;;;;;;;;5093883;28;20526;-66
2022/07/21 04:46:53;;;;;;;16.37;14.73;;;;;;;;;;5093753;28;20446;-65
2022/07/21 04:49:20;;;;;;;18.90;16.40;;;;;;;;;;5093838;28;20441;-66
2022/07/21 04:51:48;;;;;;;20.60;18.10;;;;;;;;;;5093891;28;20853;-67
2022/07/21 04:54:15;;;;;;;22.23;18.97;;;;;;;;;;5093489;28;20485;-66
2022/07/21 04:56:42;;;;;;;24.80;20.70;;;;;;;;;;5093255;28;20882;-66
2022/07/21 04:59:09;;;;;;;31.07;23.03;;;;;;;;;;5093705;28;20534;-67
2022/07/21 05:01:37;;;;;;;26.13;23.43;;;;;;;;;;5093581;28;20523;-67
2022/07/21 05:04:06;;;;;;;27.33;24.30;;;;;;;;;;5093761;28;20524;-66
2022/07/21 05:06:34;;;;;;;26.13;23.30;;;;;;;;;;5093564;28;20491;-67
2022/07/21 05:09:01;;;;;;;30.30;24.67;;;;;;;;;;5093281;28;20442;-66
2022/07/21 05:11:28;;;;;;;33.30;25.23;;;;;;;;;;5093129;28;20534;-67
2022/07/21 05:13:55;;;;;;;33.00;24.67;;;;;;;;;;5093388;28;20477;-67
2022/07/21 05:16:23;;;;;;;27.70;24.70;;;;;;;;;;5092877;28;20586;-67
2022/07/21 05:18:50;;;;;;;31.97;25.57;;;;;;;;;;5093054;28;20536;-66
2022/07/21 05:21:19;;;;;;;28.40;25.37;;;;;;;;;;5093057;28;21008;-67
2022/07/21 05:23:46;;;;;;;32.20;25.80;;;;;;;;;;5094078;28;20444;-67
2022/07/21 05:26:13;;;;;;;29.00;25.63;;;;;;;;;;5093326;28;20437;-65
2022/07/21 05:28:41;;;;;;;30.03;26.33;;;;;;;;;;5093485;28;20469;-65
2022/07/21 05:31:09;;;;;;;30.47;26.17;;;;;;;;;;5093296;28;20437;-65
2022/07/21 05:33:36;;;;;;;32.10;27.57;;;;;;;;;;5093022;28;20446;-65
2022/07/21 05:36:04;;;;;;;32.60;28.50;;;;;;;;;;5093159;28;20468;-65
2022/07/21 05:38:33;;;;;;;38.93;29.60;;;;;;;;;;5093482;28;20445;-65
2022/07/21 05:41:02;;;;;;;31.90;28.20;;;;;;;;;;5093484;28;20434;-66
2022/07/21 05:43:30;;;;;;;38.30;28.83;;;;;;;;;;5092924;28;20984;-65
2022/07/21 05:45:57;;;;;;;34.03;30.37;;;;;;;;;;5093105;28;20509;-65
2022/07/21 05:48:24;;;;;;;31.67;26.67;;;;;;;;;;5093494;28;20433;-65
2022/07/21 05:50:51;;;;;;;28.60;25.53;;;;;;;;;;5092878;28;20495;-65
2022/07/21 05:53:18;;;;;;;32.37;27.23;;;;;;;;;;5093065;28;20469;-65
2022/07/21 05:55:47;;;;;;;29.83;26.57;;;;;;;;;;5092881;28;20485;-66
2022/07/21 05:58:15;;;;;;;30.90;24.23;;;;;;;;;;5093126;28;20528;-65
2022/07/21 06:00:42;;;;;;;29.57;26.40;;;;;;;;;;5093202;28;20471;-65
2022/07/21 06:03:10;;;;;;;25.40;22.70;;;;;;;;;;5093159;28;20533;-65
2022/07/21 06:05:37;;;;;;;29.37;23.70;;;;;;;;;;5092723;28;20494;-65
2022/07/21 06:08:04;;;;;;;30.77;24.77;;;;;;;;;;5095213;28;20432;-65
2022/07/21 06:10:32;;;;;;;27.93;24.20;;;;;;;;;;5096459;28;20454;-65
2022/07/21 06:13:01;;;;;;;25.93;22.73;;;;;;;;;;5096257;28;20447;-66
2022/07/21 06:15:29;;;;;;;26.47;23.70;;;;;;;;;;5096506;28;20442;-65
2022/07/21 06:17:56;;;;;;;27.90;24.80;;;;;;;;;;5096773;28;20507;-65
2022/07/21 06:20:23;;;;;;;29.30;26.20;;;;;;;;;;5096565;28;20527;-65
2022/07/21 06:22:51;;;;;;;32.90;26.37;;;;;;;;;;5096716;28;20490;-65
2022/07/21 06:25:18;;;;;;;28.37;25.47;;;;;;;;;;5096649;28;20464;-65
2022/07/21 06:27:45;;;;;;;31.00;27.70;;;;;;;;;;5096007;28;20533;-65
2022/07/21 06:30:14;;;;;;;30.93;27.53;;;;;;;;;;5096456;28;20528;-65
2022/07/21 06:32:41;;;;;;;30.10;26.87;;;;;;;;;;5096440;28;20474;-65
2022/07/21 06:35:09;;;;;;;32.53;29.03;;;;;;;;;;5096293;28;20527;-65
2022/07/21 06:37:36;;;;;;;30.07;26.87;;;;;;;;;;5096127;28;20569;-65
2022/07/21 06:40:04;;;;;;;37.60;27.27;;;;;;;;;;5096112;28;20501;-65
2022/07/21 06:42:31;;;;;;;32.00;28.07;;;;;;;;;;5095751;28;20978;-65
2022/07/21 06:44:58;;;;;;;34.43;28.63;;;;;;;;;;5096116;28;20528;-65
2022/07/21 06:47:27;;;;;;;33.67;30.20;;;;;;;;;;5096227;28;20445;-65
2022/07/21 06:49:54;;;;;;;32.13;28.67;;;;;;;;;;5096088;28;20528;-65
2022/07/21 06:52:22;;;;;;;31.10;27.73;;;;;;;;;;5096205;28;20444;-65
2022/07/21 06:54:49;;;;;;;31.93;28.60;;;;;;;;;;5096037;28;20907;-65
2022/07/21 06:57:16;;;;;;;33.20;29.60;;;;;;;;;;5095710;28;20578;-65
2022/07/21 06:59:43;;;;;;;31.27;27.43;;;;;;;;;;5095493;28;20446;-65
2022/07/21 07:02:10;;;;;;;31.70;25.80;;;;;;;;;;5095676;28;20519;-65
2022/07/21 07:04:39;;;;;;;30.73;27.43;;;;;;;;;;5095599;28;20540;-65
2022/07/21 07:07:06;;;;;;;29.07;25.77;;;;;;;;;;5096366;28;20442;-65
2022/07/21 07:09:33;;;;;;;27.80;24.80;;;;;;;;;;5095661;28;20526;-65
2022/07/21 07:12:03;;;;;;;30.27;27.07;;;;;;;;;;5095485;28;20536;-65
2022/07/21 07:14:31;;;;;;;29.60;26.57;;;;;;;;;;5095736;28;20809;-64
2022/07/21 07:16:58;;;;;;;30.90;27.27;;;;;;;;;;5094843;28;20490;-65
2022/07/21 07:19:25;;;;;;;28.93;25.93;;;;;;;;;;5094151;28;20438;-65
2022/07/21 07:21:54;;;;;;;29.93;26.80;;;;;;;;;;5095633;28;20534;-64
2022/07/21 07:24:21;;;;;;;30.30;26.73;;;;;;;;;;5094981;28;20459;-64
2022/07/21 07:26:48;;;;;;;29.57;26.57;;;;;;;;;;5095520;28;20453;-64
2022/07/21 07:29:16;;;;;;;31.00;27.53;;;;;;;;;;5094810;28;20533;-64
2022/07/21 07:31:43;;;;;;;31.00;27.80;;;;;;;;;;5095235;28;20471;-64
2022/07/21 07:34:10;;;;;;;31.27;27.30;;;;;;;;;;5094785;28;20529;-65
2022/07/21 07:36:38;;;;;;;32.53;28.80;;;;;;;;;;5094723;28;20479;-65
2022/07/21 07:39:07;;;;;;;29.43;26.33;;;;;;;;;;5094700;28;20924;-64
2022/07/21 07:41:34;;;;;;;30.90;27.93;;;;;;;;;;5095009;28;20453;-64
2022/07/21 07:44:01;;;;;;;32.50;28.97;;;;;;;;;;5094955;28;20868;-64
2022/07/21 07:46:28;;;;;;;32.57;29.07;;;;;;;;;;5094573;28;20530;-64
2022/07/21 07:48:56;;;;;;;33.80;30.10;;;;;;;;;;5095108;28;20446;-64
2022/07/21 07:51:24;;;;;;;31.83;28.40;;;;;;;;;;5094809;28;20445;-64
2022/07/21 07:53:51;;;;;;;31.10;27.90;;;;;;;;;;5094702;28;20475;-64
2022/07/21 07:56:20;;;;;;;30.97;28.10;;;;;;;;;;5094298;28;20479;-64
2022/07/21 07:58:47;;;;;;;32.43;29.07;;;;;;;;;;5094595;28;20489;-64
2022/07/21 08:01:16;;;;;;;32.03;28.93;;;;;;;;;;5094577;28;20449;-64
2022/07/21 08:03:43;;;;;;;32.30;28.80;;;;;;;;;;5094655;28;20490;-64
2022/07/21 08:06:10;;;;;;;29.53;26.80;;;;;;;;;;5094244;28;20454;-64
2022/07/21 08:08:38;;;;;;;33.17;29.67;;;;;;;;;;5094492;28;20913;-64
2022/07/21 08:11:05;;;;;;;31.50;28.20;;;;;;;;;;5094170;28;20532;-64
2022/07/21 08:13:34;;;;;;;30.23;27.20;;;;;;;;;;5094028;28;20538;-65
2022/07/21 08:16:01;;;;;;;30.73;27.80;;;;;;;;;;5094151;28;20474;-65
2022/07/21 08:18:29;;;;;;;30.07;26.90;;;;;;;;;;5094117;28;20487;-64
2022/07/21 08:20:56;;;;;;;27.17;24.50;;;;;;;;;;5094285;28;20530;-65
2022/07/21 08:23:23;;;;;;;28.20;25.30;;;;;;;;;;5094223;28;20450;-65
2022/07/21 08:25:50;;;;;;;26.73;24.03;;;;;;;;;;5094416;28;20553;-65
2022/07/21 08:28:18;;;;;;;25.67;23.07;;;;;;;;;;5094148;28;20454;-64
2022/07/21 08:30:46;;;;;;;26.50;23.57;;;;;;;;;;5093896;28;20457;-65
2022/07/21 08:33:13;;;;;;;25.87;23.37;;;;;;;;;;5094000;28;20540;-64
2022/07/21 08:35:41;;;;;;;26.63;23.83;;;;;;;;;;5094043;28;20873;-64
2022/07/21 08:38:09;;;;;;;27.13;24.23;;;;;;;;;;5093956;28;20479;-65
2022/07/21 08:40:37;;;;;;;27.13;22.30;;;;;;;;;;5094640;28;20448;-63
2022/07/21 08:43:06;;;;;;;24.93;22.63;;;;;;;;;;5093985;28;20877;-64
2022/07/21 08:45:33;;;;;;;25.67;23.20;;;;;;;;;;5093804;28;20571;-64
2022/07/21 08:48:02;;;;;;;22.40;20.10;;;;;;;;;;5093898;28;20526;-64
2022/07/21 08:50:31;;;;;;;21.23;19.23;;;;;;;;;;5093411;28;20453;-64
2022/07/21 08:52:58;;;;;;;23.03;18.83;;;;;;;;;;5093839;28;20452;-64
2022/07/21 08:55:26;;;;;;;21.47;18.80;;;;;;;;;;5093353;28;20816;-64
2022/07/21 08:57:53;;;;;;;22.93;20.50;;;;;;;;;;5093663;28;20558;-64
2022/07/21 09:00:20;;;;;;;20.63;18.50;;;;;;;;;;5093611;28;20534;-63
2022/07/21 09:02:47;;;;;;;20.13;18.20;;;;;;;;;;5093662;28;20443;-64
2022/07/21 09:05:16;;;;;;;18.10;15.80;;;;;;;;;;5093747;28;20805;-65
2022/07/21 09:07:50;;;;;;;20.30;18.40;;;;;;;;;;5094249;28;20446;-64
2022/07/21 09:10:22;;;;;;;17.90;16.30;;;;;;;;;;5093531;28;20531;-64
2022/07/21 09:12:50;;;;;;;17.60;15.27;;;;;;;;;;5093315;28;20511;-63
2022/07/21 09:15:19;;;;;;;19.50;16.13;;;;;;;;;;5093194;28;20451;-64
2022/07/21 09:17:46;;;;;;;17.10;15.50;;;;;;;;;;5094019;28;20999;-64
2022/07/21 09:20:24;;;;;;;16.93;15.53;;;;;;;;;;5093473;28;20552;-64
2022/07/21 09:23:05;;;;;;;16.20;14.47;;;;;;;;;;5093829;28;20444;-63
2022/07/21 09:25:37;;;;;;;16.23;14.73;;;;;;;;;;5093015;28;20447;-63
2022/07/21 09:28:14;;;;;;;18.80;17.00;;;;;;;;;;5093189;28;20453;-64
2022/07/21 09:30:56;;;;;;;17.57;15.97;;;;;;;;;;5093510;28;20499;-64
2022/07/21 09:33:25;;;;;;;16.93;15.23;;;;;;;;;;5093513;28;20504;-63
2022/07/21 09:35:57;;;;;;;16.47;14.93;;;;;;;;;;5093377;28;20493;-64
2022/07/21 09:38:24;;;;;;;16.13;14.63;;;;;;;;;;5092989;28;20969;-64
2022/07/21 09:40:52;;;;;;;15.90;14.43;;;;;;;;;;5092954;28;20498;-63
2022/07/21 09:43:32;;;;;;;16.43;15.03;;;;;;;;;;5096296;28;20449;-63
2022/07/21 09:46:02;;;;;;;15.60;14.20;;;;;;;;;;5097216;28;20774;-63
2022/07/21 09:48:33;;;;;;;16.93;14.30;;;;;;;;;;5096928;28;20469;-63
2022/07/21 09:51:19;;;;;;;16.07;14.53;;;;;;;;;;5096795;28;20476;-63
2022/07/21 09:53:50;;;;;;;15.80;14.37;;;;;;;;;;5097455;28;20481;-64
2022/07/21 09:56:18;;;;;;;17.53;15.77;;;;;;;;;;5097028;28;20857;-63
2022/07/21 09:58:46;;;;;;;17.33;15.63;;;;;;;;;;5096948;28;20479;-63
2022/07/21 10:01:13;;;;;;;17.40;15.87;;;;;;;;;;5096571;28;20486;-64
2022/07/21 10:03:41;;;;;;;18.03;16.37;;;;;;;;;;5096873;28;20523;-63
2022/07/21 10:06:09;;;;;;;19.57;17.80;;;;;;;;;;5096444;28;20947;-64
2022/07/21 10:08:38;;;;;;;20.20;17.30;;;;;;;;;;5097103;28;20527;-63
2022/07/21 10:11:06;;;;;;;18.50;16.80;;;;;;;;;;5096335;28;20525;-63
2022/07/21 10:13:33;;;;;;;17.87;16.30;;;;;;;;;;5096762;28;20524;-63
2022/07/21 10:16:01;;;;;;;16.97;15.47;;;;;;;;;;5096550;28;20548;-63
2022/07/21 10:18:30;;;;;;;18.60;17.00;;;;;;;;;;5096934;28;20571;-63
2022/07/21 10:20:59;;;;;;;16.70;15.40;;;;;;;;;;5096493;28;20517;-64
2022/07/21 10:23:36;;;;;;;17.40;15.83;;;;;;;;;;5096215;28;20532;-63
2022/07/21 10:26:05;;;;;;;16.10;14.60;;;;;;;;;;5096129;28;20932;-64
2022/07/21 10:28:32;;;;;;;15.53;14.23;;;;;;;;;;5096123;28;20488;-64
2022/07/21 10:31:01;;;;;;;15.33;13.97;;;;;;;;;;5096301;28;20437;-64
2022/07/21 10:33:43;;;;;;;13.80;12.67;;;;;;;;;;5096818;28;20969;-64
2022/07/21 10:36:10;;;;;;;14.07;12.97;;;;;;;;;;5096340;28;20446;-64
2022/07/21 10:38:39;;;;;;;13.50;12.47;;;;;;;;;;5096177;28;20486;-63
2022/07/21 10:41:07;;;;;;;13.47;12.30;;;;;;;;;;5096320;28;20526;-63
2022/07/21 10:43:41;;;;;;;14.83;12.70;;;;;;;;;;5096083;28;20450;-63
2022/07/21 10:46:23;;;;;;;12.63;11.53;;;;;;;;;;5095695;28;20480;-64
2022/07/21 10:48:50;;;;;;;13.03;11.73;;;;;;;;;;5095899;28;20930;-63
2022/07/21 10:51:18;;;;;;;13.60;12.20;;;;;;;;;;5095895;28;21017;-64
2022/07/21 10:53:47;;;;;;;13.77;12.27;;;;;;;;;;5095325;28;20523;-64
2022/07/21 10:56:28;;;;;;;11.60;10.60;;;;;;;;;;5095457;28;20441;-63
2022/07/21 10:58:55;;;;;;;12.83;11.57;;;;;;;;;;5095864;28;20465;-63
2022/07/21 11:01:24;;;;;;;12.87;11.40;;;;;;;;;;5095748;28;20447;-63
2022/07/21 11:04:06;;;;;;;12.10;10.90;;;;;;;;;;5095435;28;20441;-63
2022/07/21 11:06:34;;;;;;;11.73;10.73;;;;;;;;;;5095604;28;20509;-63
2022/07/21 11:09:10;;;;;;;12.43;11.10;;;;;;;;;;5095347;28;20460;-63
2022/07/21 11:11:38;;;;;;;14.50;11.77;;;;;;;;;;5095602;28;20519;-63
2022/07/21 11:14:07;;;;;;;12.63;11.50;;;;;;;;;;5096124;28;20548;-63
2022/07/21 11:16:54;;;;;;;11.80;10.80;;;;;;;;;;5095560;28;20527;-64
2022/07/21 11:19:35;;;;;;;10.43;9.27;;;;;;;;;;5086092;28;20481;-63
2022/07/21 11:22:05;;;;;;;12.10;10.97;;;;;;;;;;5095483;28;20421;-64
2022/07/21 11:24:33;;;;;;;11.20;9.60;;;;;;;;;;5095393;28;20548;-64
2022/07/21 11:27:02;;;;;;;11.87;10.10;;;;;;;;;;5095246;28;20466;-64
2022/07/21 11:29:30;;;;;;;11.57;8.90;;;;;;;;;;5095412;28;20823;-63
2022/07/21 11:31:58;;;;;;;10.70;9.63;;;;;;;;;;5095089;28;20495;-63
2022/07/21 11:34:26;;;;;;;10.67;9.37;;;;;;;;;;5095427;28;20444;-63
2022/07/21 11:36:59;;;;;;;10.93;9.93;;;;;;;;;;5095071;28;20624;-64
2022/07/21 11:39:27;;;;;;;10.20;9.30;;;;;;;;;;5095602;28;20553;-64
2022/07/21 11:41:56;;;;;;;10.43;9.53;;;;;;;;;;5095203;28;20438;-63
2022/07/21 11:44:24;;;;;;;10.83;9.83;;;;;;;;;;5094579;28;20446;-64
2022/07/21 11:46:52;;;;;;;10.77;9.87;;;;;;;;;;5094836;28;20453;-64
2022/07/21 11:49:20;;;;;;;10.43;9.53;;;;;;;;;;5094906;28;20441;-63
2022/07/21 11:51:48;;;;;;;11.97;10.07;;;;;;;;;;5094983;28;20529;-63
2022/07/21 11:54:26;;;;;;;11.00;10.00;;;;;;;;;;5094962;28;20438;-64
2022/07/21 11:56:54;;;;;;;11.33;10.30;;;;;;;;;;5094354;28;20444;-64
2022/07/21 11:59:23;;;;;;;11.67;10.57;;;;;;;;;;5094663;28;20467;-64
2022/07/21 12:01:51;;;;;;;11.67;10.57;;;;;;;;;;5094613;28;20447;-65
2022/07/21 12:04:27;;;;;;;11.97;10.90;;;;;;;;;;5094133;28;20483;-64
2022/07/21 12:06:55;;;;;;;12.33;11.13;;;;;;;;;;5094215;28;20462;-64
2022/07/21 12:09:22;;;;;;;11.80;10.80;;;;;;;;;;5094459;28;20441;-63
2022/07/21 12:11:49;;;;;;;15.53;12.57;;;;;;;;;;5093955;28;20458;-63
2022/07/21 12:14:16;;;;;;;14.70;13.47;;;;;;;;;;5094824;28;20448;-63
2022/07/21 12:16:52;;;;;;;21.03;14.30;;;;;;;;;;5094059;28;20464;-63
2022/07/21 12:19:20;;;;;;;13.20;11.80;;;;;;;;;;5093984;28;20574;-63
2022/07/21 12:21:49;;;;;;;15.20;13.70;;;;;;;;;;5093945;28;20532;-63
2022/07/21 12:24:17;;;;;;;15.97;14.50;;;;;;;;;;5094237;28;20932;-64
2022/07/21 12:26:44;;;;;;;15.67;14.07;;;;;;;;;;5094408;28;20461;-64
2022/07/21 12:29:11;;;;;;;15.60;14.20;;;;;;;;;;5093905;28;20541;-64
2022/07/21 12:31:39;;;;;;;14.83;13.63;;;;;;;;;;5094545;28;20541;-64
2022/07/21 12:34:14;;;;;;;15.97;14.40;;;;;;;;;;5093824;28;20527;-64
2022/07/21 12:36:42;;;;;;;14.17;12.70;;;;;;;;;;5094011;28;20613;-65
2022/07/21 12:39:55;;;;;;;15.57;13.90;;;;;;;;;;5094200;28;20475;-65
2022/07/21 12:42:04;;;;;;;17.90;15.27;;;;;;;;;;5093514;28;20436;-64
2022/07/21 12:44:31;;;;;;;16.13;14.47;;;;;;;;;;5093948;28;20526;-66
2022/07/21 12:47:13;;;;;;;15.87;14.37;;;;;;;;;;5094383;28;20840;-65
2022/07/21 12:49:55;;;;;;;16.50;15.03;;;;;;;;;;5094185;28;20515;-65
2022/07/21 12:52:24;;;;;;;16.57;15.00;;;;;;;;;;5093476;28;20903;-65
2022/07/21 12:54:52;;;;;;;14.83;13.50;;;;;;;;;;5093342;28;20458;-68
2022/07/21 12:57:19;;;;;;;14.63;13.07;;;;;;;;;;5094242;28;20538;-65
2022/07/21 12:59:46;;;;;;;15.73;14.07;;;;;;;;;;5093661;28;20475;-65
2022/07/21 13:02:13;;;;;;;15.43;13.60;;;;;;;;;;5093616;28;20471;-65
2022/07/21 13:04:41;;;;;;;15.53;14.03;;;;;;;;;;5093631;28;20442;-64
2022/07/21 13:07:08;;;;;;;14.83;13.33;;;;;;;;;;5093576;28;20440;-65
2022/07/21 13:09:36;;;;;;;13.93;12.73;;;;;;;;;;5093578;28;21032;-64
2022/07/21 13:12:04;;;;;;;14.13;12.97;;;;;;;;;;5093296;28;20938;-65
2022/07/21 13:14:32;;;;;;;12.93;11.00;;;;;;;;;;5092675;28;20442;-65
2022/07/21 13:16:59;;;;;;;13.73;12.50;;;;;;;;;;5094842;28;20537;-64
2022/07/21 13:19:26;;;;;;;13.60;12.30;;;;;;;;;;5097143;28;20653;-65
2022/07/21 13:21:54;;;;;;;13.83;12.33;;;;;;;;;;5097224;28;20530;-65
2022/07/21 13:24:21;;;;;;;10.97;9.83;;;;;;;;;;5097769;28;20443;-64
2022/07/21 13:26:49;;;;;;;12.03;10.93;;;;;;;;;;5097319;28;20439;-65
2022/07/21 13:29:17;;;;;;;10.97;10.07;;;;;;;;;;5097358;28;20948;-64
2022/07/21 13:31:44;;;;;;;10.57;9.73;;;;;;;;;;5097465;28;20447;-64
2022/07/21 13:34:11;;;;;;;10.40;9.60;;;;;;;;;;5097090;28;20480;-64
2022/07/21 13:36:39;;;;;;;10.27;9.40;;;;;;;;;;5097666;28;20451;-64
2022/07/21 13:39:07;;;;;;;10.87;9.97;;;;;;;;;;5096891;28;20567;-64
2022/07/21 13:41:34;;;;;;;10.70;9.80;;;;;;;;;;5097138;28;20437;-65
2022/07/21 13:44:03;;;;;;;9.27;8.47;;;;;;;;;;5096542;28;20520;-64
2022/07/21 13:46:30;;;;;;;9.17;8.47;;;;;;;;;;5096400;28;20444;-64
2022/07/21 13:48:57;;;;;;;8.90;8.10;;;;;;;;;;5097047;28;20437;-63
2022/07/21 13:51:25;;;;;;;8.37;7.67;;;;;;;;;;5097021;28;20859;-63
2022/07/21 13:53:53;;;;;;;7.40;6.87;;;;;;;;;;5096877;28;20541;-63
2022/07/21 13:56:20;;;;;;;7.30;6.60;;;;;;;;;;5097003;28;20931;-63
2022/07/21 13:58:48;;;;;;;7.10;6.50;;;;;;;;;;5096776;28;20479;-63
2022/07/21 14:01:16;;;;;;;6.93;6.30;;;;;;;;;;5096643;28;20531;-63
2022/07/21 14:03:44;;;;;;;7.50;7.00;;;;;;;;;;5096318;28;20468;-64
2022/07/21 14:06:12;;;;;;;6.87;6.27;;;;;;;;;;5096672;28;20839;-64
2022/07/21 14:08:39;;;;;;;5.70;5.40;;;;;;;;;;5096293;28;21013;-63
2022/07/21 14:11:07;;;;;;;6.97;6.40;;;;;;;;;;5096751;28;20472;-63
2022/07/21 14:13:35;;;;;;;7.10;6.50;;;;;;;;;;5096214;28;20564;-64
2022/07/21 14:16:02;;;;;;;5.87;5.47;;;;;;;;;;5096457;28;20904;-63
2022/07/21 14:18:31;;;;;;;5.50;5.10;;;;;;;;;;5096243;28;20480;-63
2022/07/21 14:20:58;;;;;;;7.90;5.60;;;;;;;;;;5097043;28;20531;-63
2022/07/21 14:23:25;;;;;;;6.33;5.83;;;;;;;;;;5096048;28;20527;-64
2022/07/21 14:25:53;;;;;;;6.40;5.40;;;;;;;;;;5096266;28;20538;-63
2022/07/21 14:28:21;;;;;;;5.33;4.93;;;;;;;;;;5095541;28;20859;-66